Aérodrome :
LOGIN :

S'inscrire | Disclaimer

   EN    FR    IT 

 










Légende :    VFR   VFR Marginal   IFR   IFR Intensif   IFR Très Intensif
Visi : 
Plafond : 
>= 8 km
>= 3000ft
5 à 8 km
1000 à 3000 ft
1500m à 5 km
500 à 1000 ft
800 à 1500m
200 à 500 ft
< 800m
< 200 ft
Symboles :   Orages  Brouillard  Fortes neiges  Fortes précipitations  Vent > 20 kt
SIGMETs :   Divers  Orages  Givrage  Turbulence  Onde Orograph.  Cendres Volcan.







- Altitude de l'aérodrome : 648 ft
- Code IATA : INI


LYNI - Nis Constantine

DERNIER METAR :
  • 162300Z 14002KT 7000 NSC M01/M02 Q1031 NOSIG

METARs EXPIRÉS :
  • 162230Z 08005KT 6000 NSC M00/M02 Q1031 NOSIG
  • 162200Z 09005KT 6000 NSC 00/M02 Q1031 NOSIG
  • 162130Z 09005KT 6000 NSC 01/M02 Q1031 NOSIG
  • 162100Z 08005KT 6000 NSC 01/M02 Q1031 NOSIG
  • 162030Z 07006KT 6000 NSC 02/M01 Q1031 NOSIG

TAF COR TAF LYNI
Valide du 16 à 19h jusqu'au 17 à 18h UTC


161835Z 1619/1718 35006KT CAVOK TX09/1712Z TNM02/1706Z
BECMG 1621/1623 3000 BR
PROB30
TEMPO 1703/1707 0500 FZFG
BECMG 1708/1710 9999 NSW
Pas de NOTAMs connus pour ce terrain.



MET'MAP, la Météo Aéronautique d'un coup d'oeil ! - Copyright ORBIFLY Décembre 2007 - Disclaimer

ORBIFLY MET'MAP TEAM :

Programmation & Développement : Alexandra Zaïnal
Conception & Développement : Baudouin d'Aumeries
Co-Programmation & Développement : Marc-Olivier Méhu
Soutien technique & logistique : Manuel Goepfert

Contact : metmap@orbifly.com




SOURCES & CREDITS :

   NOAA